createdAt,value
2022-09-23T00:00:07.221Z,1017.23
2022-09-23T00:01:07.270Z,1017.22
2022-09-23T00:02:07.320Z,1017.23
2022-09-23T00:03:07.223Z,1017.22
2022-09-23T00:04:07.201Z,1017.24
2022-09-23T00:05:07.197Z,1017.22
2022-09-23T00:06:07.240Z,1017.24
2022-09-23T00:07:07.200Z,1017.19
2022-09-23T00:08:07.191Z,1017.21
2022-09-23T00:09:07.212Z,1017.18
2022-09-23T00:10:07.175Z,1017.13
2022-09-23T00:11:07.180Z,1017.13
2022-09-23T00:12:09.198Z,1017.11
2022-09-23T00:13:07.171Z,1017.11
2022-09-23T00:14:07.164Z,1017.13
2022-09-23T00:15:07.162Z,1017.11
2022-09-23T00:16:07.154Z,1017.08
2022-09-23T00:17:07.295Z,1017.05
2022-09-23T00:18:07.168Z,1017.06
2022-09-23T00:19:07.145Z,1017.04
2022-09-23T00:20:07.136Z,1017.00
2022-09-23T00:21:07.139Z,1017.03
2022-09-23T00:22:07.138Z,1017.03
2022-09-23T00:23:07.124Z,1017.01
2022-09-23T00:24:07.206Z,1017.00
2022-09-23T00:25:07.125Z,1016.99
2022-09-23T00:26:07.101Z,1017.02
2022-09-23T00:27:07.099Z,1016.99
2022-09-23T00:28:07.098Z,1017.00
2022-09-23T00:29:07.098Z,1016.98
2022-09-23T00:30:07.241Z,1016.98
2022-09-23T00:31:07.139Z,1016.91
2022-09-23T00:32:07.094Z,1016.90
2022-09-23T00:33:07.079Z,1016.91
2022-09-23T00:34:07.092Z,1016.93
2022-09-23T00:35:07.077Z,1016.90
2022-09-23T00:36:07.060Z,1016.91
2022-09-23T00:37:07.056Z,1016.93
2022-09-23T00:38:07.054Z,1016.93
2022-09-23T00:39:07.085Z,1016.91
2022-09-23T00:40:07.108Z,1016.90
2022-09-23T00:41:07.033Z,1016.87
2022-09-23T00:42:07.048Z,1016.85
2022-09-23T00:43:07.039Z,1016.87
2022-09-23T00:44:07.051Z,1016.88
2022-09-23T00:45:07.039Z,1016.85
2022-09-23T00:46:07.080Z,1016.87
2022-09-23T00:47:07.016Z,1016.89
2022-09-23T00:48:07.007Z,1016.91
2022-09-23T00:49:07.013Z,1016.87
2022-09-23T00:50:07.002Z,1016.87
2022-09-23T00:51:07.008Z,1016.85
2022-09-23T00:52:06.990Z,1016.86
2022-09-23T00:53:06.996Z,1016.87
2022-09-23T00:54:07.141Z,1016.84
2022-09-23T00:55:06.988Z,1016.87
2022-09-23T00:56:06.975Z,1016.85
2022-09-23T00:57:06.968Z,1016.83
2022-09-23T00:58:06.963Z,1016.82
2022-09-23T00:59:06.962Z,1016.79
2022-09-23T01:00:06.963Z,1016.77
2022-09-23T01:01:06.991Z,1016.76
2022-09-23T01:02:07.027Z,1016.78
2022-09-23T01:03:06.950Z,1016.78
2022-09-23T01:04:06.938Z,1016.75
2022-09-23T01:05:06.927Z,1016.72
2022-09-23T01:06:06.930Z,1016.77
2022-09-23T01:07:06.923Z,1016.67
2022-09-23T01:08:06.930Z,1016.74
2022-09-23T01:09:07.091Z,1016.70
2022-09-23T01:10:06.977Z,1016.66
2022-09-23T01:11:06.941Z,1016.67
2022-09-23T01:12:06.988Z,1016.70
2022-09-23T01:13:06.932Z,1016.68
2022-09-23T01:14:06.911Z,1016.69
2022-09-23T01:15:06.914Z,1016.65
2022-09-23T01:16:06.913Z,1016.67
2022-09-23T01:17:07.005Z,1016.66
2022-09-23T01:18:06.877Z,1016.63
2022-09-23T01:19:06.976Z,1016.63
2022-09-23T01:20:06.882Z,1016.64
2022-09-23T01:21:06.912Z,1016.59
2022-09-23T01:22:06.867Z,1016.64
2022-09-23T01:23:06.928Z,1016.60
2022-09-23T01:24:07.044Z,1016.61
2022-09-23T01:25:06.868Z,1016.60
2022-09-23T01:26:06.886Z,1016.62
2022-09-23T01:27:06.855Z,1016.59
2022-09-23T01:28:06.880Z,1016.56
2022-09-23T01:29:06.889Z,1016.57
2022-09-23T01:30:06.876Z,1016.57
2022-09-23T01:31:06.883Z,1016.57
2022-09-23T01:32:06.810Z,1016.60
2022-09-23T01:33:06.826Z,1016.58
2022-09-23T01:34:06.800Z,1016.60
2022-09-23T01:35:06.798Z,1016.51
2022-09-23T01:36:06.798Z,1016.59
2022-09-23T01:37:06.818Z,1016.58
2022-09-23T01:38:06.877Z,1016.56
2022-09-23T01:39:06.938Z,1016.53
2022-09-23T01:40:06.820Z,1016.53
2022-09-23T01:41:06.769Z,1016.53
2022-09-23T01:42:06.763Z,1016.53
2022-09-23T01:43:06.769Z,1016.53
2022-09-23T01:44:06.757Z,1016.53
2022-09-23T01:45:06.757Z,1016.53
2022-09-23T01:46:06.745Z,1016.51
2022-09-23T01:47:06.760Z,1016.53
2022-09-23T01:48:06.792Z,1016.47
2022-09-23T01:49:06.793Z,1016.46
2022-09-23T01:50:06.727Z,1016.48
2022-09-23T01:51:06.743Z,1016.47
2022-09-23T01:52:06.726Z,1016.48
2022-09-23T01:53:06.724Z,1016.47
2022-09-23T01:54:06.706Z,1016.46
2022-09-23T01:55:06.718Z,1016.42
2022-09-23T01:56:06.704Z,1016.45
2022-09-23T01:57:06.692Z,1016.42
2022-09-23T01:58:06.684Z,1016.44
2022-09-23T01:59:06.707Z,1016.41
2022-09-23T02:00:06.703Z,1016.42
2022-09-23T02:01:06.732Z,1016.42
2022-09-23T02:02:06.689Z,1016.44
2022-09-23T02:03:06.670Z,1016.43
2022-09-23T02:04:06.774Z,1016.45
2022-09-23T02:05:06.657Z,1016.40
2022-09-23T02:06:06.656Z,1016.41
2022-09-23T02:07:06.646Z,1016.37
2022-09-23T02:08:06.642Z,1016.40
2022-09-23T02:09:06.636Z,1016.35
2022-09-23T02:10:06.630Z,1016.35
2022-09-23T02:11:06.622Z,1016.34
2022-09-23T02:12:06.619Z,1016.33
2022-09-23T02:13:06.623Z,1016.32
2022-09-23T02:14:06.617Z,1016.33
2022-09-23T02:15:06.629Z,1016.32
2022-09-23T02:16:06.747Z,1016.29
2022-09-23T02:17:06.596Z,1016.28
2022-09-23T02:18:06.598Z,1016.26
2022-09-23T02:19:06.716Z,1016.27
2022-09-23T02:20:06.580Z,1016.27
2022-09-23T02:21:06.592Z,1016.29
2022-09-23T02:22:06.593Z,1016.26
2022-09-23T02:23:06.566Z,1016.27
2022-09-23T02:24:06.563Z,1016.21
2022-09-23T02:25:06.563Z,1016.18
2022-09-23T02:26:06.562Z,1016.19
2022-09-23T02:27:06.555Z,1016.12
2022-09-23T02:28:06.549Z,1016.13
2022-09-23T02:29:06.646Z,1016.10
2022-09-23T02:30:06.549Z,1016.20
2022-09-23T02:31:06.534Z,1016.14
2022-09-23T02:32:06.571Z,1016.12
2022-09-23T02:33:06.531Z,1016.09
2022-09-23T02:34:06.516Z,1016.12
2022-09-23T02:35:06.512Z,1016.10
2022-09-23T02:36:06.538Z,1016.13
2022-09-23T02:37:06.504Z,1016.12
2022-09-23T02:38:06.508Z,1016.10
2022-09-23T02:39:06.499Z,1016.07
2022-09-23T02:40:06.546Z,1016.07
2022-09-23T02:41:06.492Z,1016.02
2022-09-23T02:42:06.490Z,1016.00
2022-09-23T02:43:06.472Z,1016.05
2022-09-23T02:44:06.592Z,1016.02
2022-09-23T02:45:06.467Z,1016.01
2022-09-23T02:46:06.549Z,1016.02
2022-09-23T02:47:06.461Z,1015.97
2022-09-23T02:48:06.457Z,1016.00
2022-09-23T02:49:06.443Z,1015.98
2022-09-23T02:50:06.443Z,1015.95
2022-09-23T02:51:06.451Z,1015.97
2022-09-23T02:52:06.431Z,1015.95
2022-09-23T02:53:06.426Z,1015.96
2022-09-23T02:54:06.548Z,1015.88
2022-09-23T02:55:06.425Z,1015.93
2022-09-23T02:56:06.419Z,1015.90
2022-09-23T02:57:06.411Z,1015.88
2022-09-23T02:58:06.416Z,1015.90
2022-09-23T02:59:06.398Z,1015.89
2022-09-23T03:00:06.410Z,1015.89
2022-09-23T03:01:06.432Z,1015.86
2022-09-23T03:02:06.423Z,1015.83
2022-09-23T03:03:06.374Z,1015.85
2022-09-23T03:04:06.364Z,1015.82
2022-09-23T03:05:06.380Z,1015.78
2022-09-23T03:06:06.363Z,1015.85
2022-09-23T03:07:06.392Z,1015.83
2022-09-23T03:08:06.386Z,1015.82
2022-09-23T03:09:06.515Z,1015.81
2022-09-23T03:10:06.369Z,1015.82
2022-09-23T03:11:06.361Z,1015.85
2022-09-23T03:12:06.362Z,1015.76
2022-09-23T03:13:06.322Z,1015.79
2022-09-23T03:14:06.325Z,1015.75
2022-09-23T03:15:06.338Z,1015.78
2022-09-23T03:16:06.335Z,1015.76
2022-09-23T03:17:06.311Z,1015.75
2022-09-23T03:18:06.306Z,1015.74
2022-09-23T03:19:06.298Z,1015.75
2022-09-23T03:20:06.300Z,1015.72
2022-09-23T03:21:06.324Z,1015.69
2022-09-23T03:22:06.281Z,1015.73
2022-09-23T03:23:06.288Z,1015.66
2022-09-23T03:24:06.463Z,1015.68
2022-09-23T03:25:06.280Z,1015.68
2022-09-23T03:26:06.265Z,1015.65
2022-09-23T03:27:06.270Z,1015.65
2022-09-23T03:28:06.290Z,1015.64
2022-09-23T03:29:06.251Z,1015.67
2022-09-23T03:30:06.270Z,1015.64
2022-09-23T03:31:06.241Z,1015.64
2022-09-23T03:32:06.318Z,1015.63
2022-09-23T03:33:06.239Z,1015.65
2022-09-23T03:34:06.232Z,1015.63
2022-09-23T03:35:06.223Z,1015.61
2022-09-23T03:36:06.238Z,1015.62
2022-09-23T03:37:06.212Z,1015.60
2022-09-23T03:38:06.215Z,1015.61
2022-09-23T03:39:06.355Z,1015.59
2022-09-23T03:40:06.243Z,1015.60
2022-09-23T03:41:06.202Z,1015.60
2022-09-23T03:42:06.234Z,1015.58
2022-09-23T03:43:06.180Z,1015.54
2022-09-23T03:44:06.179Z,1015.58
2022-09-23T03:45:06.171Z,1015.56
2022-09-23T03:46:06.216Z,1015.55
2022-09-23T03:47:06.178Z,1015.54
2022-09-23T03:48:06.147Z,1015.61
2022-09-23T03:49:06.157Z,1015.57
2022-09-23T03:50:06.143Z,1015.58
2022-09-23T03:51:06.138Z,1015.55
2022-09-23T03:52:06.157Z,1015.54
2022-09-23T03:53:06.143Z,1015.60
2022-09-23T03:54:06.279Z,1015.55
2022-09-23T03:55:06.138Z,1015.53
2022-09-23T03:56:06.112Z,1015.53
2022-09-23T03:57:06.124Z,1015.49
2022-09-23T03:58:06.111Z,1015.52
2022-09-23T03:59:06.099Z,1015.52
2022-09-23T04:00:06.087Z,1015.50
2022-09-23T04:01:06.136Z,1015.48
2022-09-23T04:02:06.139Z,1015.51
2022-09-23T04:03:10.937Z,1015.47
2022-09-23T04:04:06.276Z,1015.48
2022-09-23T04:05:06.081Z,1015.48
2022-09-23T04:06:06.077Z,1015.43
2022-09-23T04:07:06.061Z,1015.44
2022-09-23T04:08:06.063Z,1015.43
2022-09-23T04:09:06.051Z,1015.42
2022-09-23T04:10:06.044Z,1015.39
2022-09-23T04:11:06.048Z,1015.37
2022-09-23T04:12:06.041Z,1015.36
2022-09-23T04:13:06.041Z,1015.40
2022-09-23T04:14:06.025Z,1015.31
2022-09-23T04:15:06.019Z,1015.33
2022-09-23T04:16:06.037Z,1015.33
2022-09-23T04:17:06.003Z,1015.31
2022-09-23T04:18:06.016Z,1015.35
2022-09-23T04:19:09.638Z,1015.34
2022-09-23T04:20:06.003Z,1015.28
2022-09-23T04:21:05.997Z,1015.34
2022-09-23T04:22:05.982Z,1015.31
2022-09-23T04:23:05.977Z,1015.27
2022-09-23T04:24:05.974Z,1015.30
2022-09-23T04:25:05.972Z,1015.31
2022-09-23T04:26:06.002Z,1015.27
2022-09-23T04:27:05.972Z,1015.30
2022-09-23T04:28:05.953Z,1015.26
2022-09-23T04:29:06.065Z,1015.30
2022-09-23T04:30:05.953Z,1015.26
2022-09-23T04:31:06.009Z,1015.26
2022-09-23T04:32:05.929Z,1015.31
2022-09-23T04:33:05.927Z,1015.28
2022-09-23T04:34:05.941Z,1015.34
2022-09-23T04:35:05.913Z,1015.30
2022-09-23T04:36:05.915Z,1015.30
2022-09-23T04:37:05.907Z,1015.27
2022-09-23T04:38:05.910Z,1015.30
2022-09-23T04:39:13.099Z,1015.25
2022-09-23T04:41:09.898Z,1015.26
2022-09-23T04:42:09.913Z,1015.26
2022-09-23T04:44:13.882Z,1015.26
2022-09-23T04:45:13.870Z,1015.22
2022-09-23T04:47:07.081Z,1015.22
2022-09-23T04:48:06.985Z,1015.20
2022-09-23T04:50:00.132Z,1015.18
2022-09-23T04:50:59.861Z,1015.22
2022-09-23T04:53:03.861Z,1015.18
2022-09-23T04:54:03.850Z,1015.19
2022-09-23T04:56:07.829Z,1015.23
2022-09-23T04:57:07.809Z,1015.25
2022-09-23T04:59:11.812Z,1015.24
2022-09-23T05:00:11.808Z,1015.25
2022-09-23T05:02:15.909Z,1015.25
2022-09-23T05:03:15.793Z,1015.28
2022-09-23T05:05:19.784Z,1015.23
2022-09-23T05:06:19.816Z,1015.19
2022-09-23T05:08:23.830Z,1015.19
2022-09-23T05:09:23.790Z,1015.19
2022-09-23T05:11:27.755Z,1015.23
2022-09-23T05:12:27.728Z,1015.21
2022-09-23T05:14:31.713Z,1015.21
2022-09-23T05:15:31.712Z,1015.16
2022-09-23T05:17:35.723Z,1015.27
2022-09-23T05:18:35.683Z,1015.24
2022-09-23T05:20:40.173Z,1015.23
2022-09-23T05:21:40.149Z,1015.22
2022-09-23T05:22:40.156Z,1015.17
2022-09-23T05:23:40.141Z,1015.21
2022-09-23T05:24:40.173Z,1015.20
2022-09-23T05:25:40.134Z,1015.18
2022-09-23T05:26:40.136Z,1015.19
2022-09-23T05:27:40.132Z,1015.18
2022-09-23T05:28:40.129Z,1015.20
2022-09-23T05:29:40.107Z,1015.18
2022-09-23T05:30:40.139Z,1015.19
2022-09-23T05:31:40.155Z,1015.20
2022-09-23T05:32:40.108Z,1015.24
2022-09-23T05:33:40.082Z,1015.23
2022-09-23T05:34:40.089Z,1015.20
2022-09-23T05:35:40.078Z,1015.18
2022-09-23T05:36:40.107Z,1015.17
2022-09-23T05:37:40.114Z,1015.18
2022-09-23T05:38:40.121Z,1015.20
2022-09-23T05:39:40.065Z,1015.19
2022-09-23T05:40:40.161Z,1015.18
2022-09-23T05:41:40.063Z,1015.20
2022-09-23T05:42:40.044Z,1015.19
2022-09-23T05:43:40.048Z,1015.18
2022-09-23T05:44:40.034Z,1015.17
2022-09-23T05:45:40.032Z,1015.14
2022-09-23T05:46:40.067Z,1015.21
2022-09-23T05:47:40.015Z,1015.20
2022-09-23T05:48:40.021Z,1015.21
2022-09-23T05:49:58.572Z,1015.25
2022-09-23T05:50:40.003Z,1015.24
2022-09-23T05:51:40.000Z,1015.23
2022-09-23T05:52:40.003Z,1015.24
2022-09-23T05:53:40.000Z,1015.21
2022-09-23T05:54:39.986Z,1015.20
2022-09-23T05:55:39.987Z,1015.20
2022-09-23T05:56:39.978Z,1015.20
2022-09-23T05:57:39.971Z,1015.21
2022-09-23T05:58:39.970Z,1015.22
2022-09-23T05:59:39.956Z,1015.22
2022-09-23T06:00:39.953Z,1015.21
2022-09-23T06:01:40.010Z,1015.18
2022-09-23T06:02:39.983Z,1015.22
2022-09-23T06:03:39.941Z,1015.24
2022-09-23T06:04:39.969Z,1015.24
2022-09-23T06:05:39.929Z,1015.22
2022-09-23T06:06:39.928Z,1015.23
2022-09-23T06:07:39.948Z,1015.26
2022-09-23T06:08:39.933Z,1015.27
2022-09-23T06:09:39.911Z,1015.26
2022-09-23T06:10:39.922Z,1015.27
2022-09-23T06:11:40.000Z,1015.22
2022-09-23T06:12:39.895Z,1015.21
2022-09-23T06:13:39.885Z,1015.20
2022-09-23T06:14:39.899Z,1015.25
2022-09-23T06:15:39.918Z,1015.25
2022-09-23T06:16:39.881Z,1015.21
2022-09-23T06:17:39.875Z,1015.22
2022-09-23T06:18:39.868Z,1015.20
2022-09-23T06:19:39.870Z,1015.19
2022-09-23T06:20:39.871Z,1015.24
2022-09-23T06:21:39.856Z,1015.28
2022-09-23T06:22:40.278Z,1015.25
2022-09-23T06:23:41.750Z,1015.30
2022-09-23T06:24:39.848Z,1015.29
2022-09-23T06:25:39.836Z,1015.28
2022-09-23T06:26:39.834Z,1015.23
2022-09-23T06:27:39.827Z,1015.25
2022-09-23T06:28:39.851Z,1015.25
2022-09-23T06:29:39.827Z,1015.29
2022-09-23T06:30:39.811Z,1015.24
2022-09-23T06:31:39.826Z,1015.24
2022-09-23T06:32:39.817Z,1015.24
2022-09-23T06:33:39.799Z,1015.28
2022-09-23T06:34:50.141Z,1015.23
2022-09-23T06:35:40.171Z,1015.27
2022-09-23T06:36:43.881Z,1015.25
2022-09-23T06:37:39.779Z,1015.26
2022-09-23T06:38:39.786Z,1015.28
2022-09-23T06:39:39.774Z,1015.28
2022-09-23T06:40:39.832Z,1015.30
2022-09-23T06:41:39.769Z,1015.28
2022-09-23T06:42:39.762Z,1015.29
2022-09-23T06:43:39.756Z,1015.30
2022-09-23T06:44:39.754Z,1015.31
2022-09-23T06:45:39.751Z,1015.31
2022-09-23T06:46:39.826Z,1015.30
2022-09-23T06:47:39.741Z,1015.29
2022-09-23T06:48:44.045Z,1015.30
2022-09-23T06:49:39.735Z,1015.30
2022-09-23T06:50:39.732Z,1015.22
2022-09-23T06:51:39.746Z,1015.29
2022-09-23T06:52:39.758Z,1015.28
2022-09-23T06:53:39.715Z,1015.29
2022-09-23T06:54:39.716Z,1015.26
2022-09-23T06:55:39.726Z,1015.27
2022-09-23T06:56:40.125Z,1015.32
2022-09-23T06:57:39.747Z,1015.31
2022-09-23T06:58:39.695Z,1015.33
2022-09-23T06:59:39.821Z,1015.31
2022-09-23T07:00:39.691Z,1015.35
2022-09-23T07:01:39.841Z,1015.32
2022-09-23T07:02:39.786Z,1015.29
2022-09-23T07:03:39.685Z,1015.30
2022-09-23T07:04:39.683Z,1015.32
2022-09-23T07:05:39.665Z,1015.33
2022-09-23T07:06:39.661Z,1015.33
2022-09-23T07:07:39.663Z,1015.34
2022-09-23T07:08:39.656Z,1015.38
2022-09-23T07:09:39.646Z,1015.33
2022-09-23T07:10:39.646Z,1015.35
2022-09-23T07:11:39.635Z,1015.33
2022-09-23T07:12:39.636Z,1015.28
2022-09-23T07:13:39.633Z,1015.32
2022-09-23T07:14:39.632Z,1015.26
2022-09-23T07:15:39.683Z,1015.34
2022-09-23T07:16:39.629Z,1015.33
2022-09-23T07:17:39.612Z,1015.35
2022-09-23T07:18:39.620Z,1015.37
2022-09-23T07:19:39.620Z,1015.41
2022-09-23T07:20:39.617Z,1015.40
2022-09-23T07:21:39.603Z,1015.46
2022-09-23T07:22:39.612Z,1015.47
2022-09-23T07:23:39.598Z,1015.45
2022-09-23T07:24:39.604Z,1015.53
2022-09-23T07:25:39.636Z,1015.50
2022-09-23T07:26:44.908Z,1015.56
2022-09-23T07:27:39.588Z,1015.54
2022-09-23T07:28:39.602Z,1015.59
2022-09-23T07:29:48.082Z,1015.57
2022-09-23T07:30:44.923Z,1015.69
2022-09-23T07:31:40.229Z,1015.72
2022-09-23T07:32:48.331Z,1015.67
2022-09-23T07:33:39.665Z,1015.72
2022-09-23T07:34:39.593Z,1015.67
2022-09-23T07:35:39.585Z,1015.75
2022-09-23T07:36:39.602Z,1015.73
2022-09-23T07:37:39.600Z,1015.71
2022-09-23T07:38:44.942Z,1015.73
2022-09-23T07:39:39.609Z,1015.76
2022-09-23T07:40:39.676Z,1015.77
2022-09-23T07:41:39.624Z,1015.74
2022-09-23T07:42:39.637Z,1015.71
2022-09-23T07:43:39.639Z,1015.69
2022-09-23T07:44:39.656Z,1015.72
2022-09-23T07:45:39.654Z,1015.73
2022-09-23T07:46:39.685Z,1015.75
2022-09-23T07:47:39.681Z,1015.78
2022-09-23T07:48:39.687Z,1015.82
2022-09-23T07:49:39.724Z,1015.86
2022-09-23T07:50:39.714Z,1015.89
2022-09-23T07:51:39.704Z,1015.91
2022-09-23T07:52:39.718Z,1015.86
2022-09-23T07:53:39.758Z,1015.87
2022-09-23T07:54:39.746Z,1015.85
2022-09-23T07:55:39.756Z,1015.82
2022-09-23T07:56:39.778Z,1015.81
2022-09-23T07:57:39.798Z,1015.80
2022-09-23T07:58:39.784Z,1015.78
2022-09-23T07:59:39.802Z,1015.75
2022-09-23T08:00:39.809Z,1015.76
2022-09-23T08:01:39.938Z,1015.79
2022-09-23T08:02:39.905Z,1015.71
2022-09-23T08:03:39.872Z,1015.73
2022-09-23T08:04:39.890Z,1015.74
2022-09-23T08:05:39.928Z,1015.74
2022-09-23T08:06:39.873Z,1015.67
2022-09-23T08:07:39.913Z,1015.71
2022-09-23T08:08:39.925Z,1015.69
2022-09-23T08:09:39.929Z,1015.70
2022-09-23T08:10:39.929Z,1015.70
2022-09-23T08:11:39.936Z,1015.69
2022-09-23T08:12:39.987Z,1015.68
2022-09-23T08:13:39.967Z,1015.64
2022-09-23T08:14:39.968Z,1015.64
2022-09-23T08:15:40.042Z,1015.60
2022-09-23T08:16:39.989Z,1015.61
2022-09-23T08:17:40.017Z,1015.63
2022-09-23T08:18:40.029Z,1015.59
2022-09-23T08:19:40.036Z,1015.62
2022-09-23T08:20:42.589Z,1015.63
2022-09-23T08:21:40.630Z,1015.62
2022-09-23T08:22:40.070Z,1015.61
2022-09-23T08:23:40.086Z,1015.63
2022-09-23T08:24:40.086Z,1015.59
2022-09-23T08:25:40.227Z,1015.59
2022-09-23T08:26:40.128Z,1015.55
2022-09-23T08:27:40.134Z,1015.52
2022-09-23T08:28:40.158Z,1015.53
2022-09-23T08:29:40.146Z,1015.55
2022-09-23T08:30:40.220Z,1015.53
2022-09-23T08:31:40.163Z,1015.55
2022-09-23T08:32:40.187Z,1015.53
2022-09-23T08:33:40.185Z,1015.52
2022-09-23T08:34:40.187Z,1015.51
2022-09-23T08:35:40.199Z,1015.45
2022-09-23T08:36:40.211Z,1015.49
2022-09-23T08:37:40.271Z,1015.47
2022-09-23T08:38:40.237Z,1015.48
2022-09-23T08:39:40.239Z,1015.41
2022-09-23T08:40:40.275Z,1015.44
2022-09-23T08:41:40.256Z,1015.43
2022-09-23T08:42:40.249Z,1015.39
2022-09-23T08:43:40.323Z,1015.41
2022-09-23T08:44:40.273Z,1015.45
2022-09-23T08:45:40.283Z,1015.41
2022-09-23T08:46:40.267Z,1015.42
2022-09-23T08:47:40.288Z,1015.38
2022-09-23T08:48:40.323Z,1015.34
2022-09-23T08:49:40.300Z,1015.36
2022-09-23T08:50:40.324Z,1015.34
2022-09-23T08:51:40.311Z,1015.29
2022-09-23T08:52:40.317Z,1015.27
2022-09-23T08:53:40.311Z,1015.26
2022-09-23T08:54:40.344Z,1015.23
2022-09-23T08:55:40.337Z,1015.17
2022-09-23T08:56:40.310Z,1015.20
2022-09-23T08:57:40.314Z,1015.18
2022-09-23T08:58:40.320Z,1015.18
2022-09-23T08:59:40.325Z,1015.19
2022-09-23T09:00:40.327Z,1015.18
2022-09-23T09:01:40.502Z,1015.17
2022-09-23T09:02:40.381Z,1015.18
2022-09-23T09:03:40.350Z,1015.15
2022-09-23T09:04:40.345Z,1015.11
2022-09-23T09:05:40.334Z,1015.18
2022-09-23T09:06:52.421Z,1015.13
2022-09-23T09:07:40.336Z,1015.16
2022-09-23T09:08:40.348Z,1015.16
2022-09-23T09:09:40.350Z,1015.16
2022-09-23T09:10:40.344Z,1015.17
2022-09-23T09:11:40.347Z,1015.18
2022-09-23T09:12:40.347Z,1015.13
2022-09-23T09:13:40.362Z,1015.14
2022-09-23T09:14:40.350Z,1015.19
2022-09-23T09:15:40.413Z,1015.17
2022-09-23T09:16:58.812Z,1015.13
2022-09-23T09:17:40.352Z,1015.15
2022-09-23T09:18:40.350Z,1015.15
2022-09-23T09:19:40.368Z,1015.16
2022-09-23T09:20:40.347Z,1015.16
2022-09-23T09:21:40.371Z,1015.19
2022-09-23T09:22:40.357Z,1015.16
2022-09-23T09:23:40.358Z,1015.15
2022-09-23T09:24:40.356Z,1015.17
2022-09-23T09:25:40.360Z,1015.16
2022-09-23T09:26:40.365Z,1015.12
2022-09-23T09:27:40.368Z,1015.12
2022-09-23T09:28:40.374Z,1015.15
2022-09-23T09:29:40.631Z,1015.12
2022-09-23T09:30:41.077Z,1015.13
2022-09-23T09:31:40.455Z,1015.12
2022-09-23T09:32:40.375Z,1015.05
2022-09-23T09:33:40.388Z,1015.09
2022-09-23T09:34:40.380Z,1015.10
2022-09-23T09:35:47.222Z,1015.08
2022-09-23T09:36:40.370Z,1015.03
2022-09-23T09:37:40.376Z,1015.00
2022-09-23T09:38:40.376Z,1015.08
2022-09-23T09:39:40.365Z,1015.01
2022-09-23T09:40:40.452Z,1014.97
2022-09-23T09:41:40.377Z,1014.97
2022-09-23T09:42:40.396Z,1015.00
2022-09-23T09:43:44.041Z,1014.96
2022-09-23T09:44:40.378Z,1014.94
2022-09-23T09:45:40.388Z,1014.93
2022-09-23T09:46:40.449Z,1014.86
2022-09-23T09:47:40.395Z,1014.86
2022-09-23T09:48:40.383Z,1014.80
2022-09-23T09:49:40.833Z,1014.83
2022-09-23T09:50:40.382Z,1014.83
2022-09-23T09:51:40.401Z,1014.81
2022-09-23T09:52:43.186Z,1014.83
2022-09-23T09:53:40.319Z,1014.75
2022-09-23T09:54:40.388Z,1014.74
2022-09-23T09:55:40.322Z,1014.72
2022-09-23T09:56:40.396Z,1014.71
2022-09-23T09:57:40.319Z,1014.67
2022-09-23T09:58:40.316Z,1014.63
2022-09-23T09:59:40.322Z,1014.61
2022-09-23T10:00:40.337Z,1014.62
2022-09-23T10:01:40.361Z,1014.58
2022-09-23T10:02:40.336Z,1014.62
2022-09-23T10:03:40.335Z,1014.64
2022-09-23T10:04:40.395Z,1014.62
2022-09-23T10:05:40.331Z,1014.64
2022-09-23T10:06:40.351Z,1014.61
2022-09-23T10:07:40.320Z,1014.53
2022-09-23T10:08:40.324Z,1014.57
2022-09-23T10:09:40.324Z,1014.53
2022-09-23T10:10:40.324Z,1014.54
2022-09-23T10:11:40.319Z,1014.52
2022-09-23T10:12:40.323Z,1014.51
2022-09-23T10:13:40.320Z,1014.55
2022-09-23T10:14:40.329Z,1014.53
2022-09-23T10:15:44.494Z,1014.56
2022-09-23T10:16:40.373Z,1014.55
2022-09-23T10:17:40.329Z,1014.53
2022-09-23T10:18:40.328Z,1014.56
2022-09-23T10:19:40.347Z,1014.54
2022-09-23T10:20:40.342Z,1014.51
2022-09-23T10:21:40.326Z,1014.53
2022-09-23T10:22:40.431Z,1014.49
2022-09-23T10:23:40.343Z,1014.48
2022-09-23T10:24:40.323Z,1014.51
2022-09-23T10:25:40.319Z,1014.41
2022-09-23T10:26:40.333Z,1014.42
2022-09-23T10:27:40.316Z,1014.45
2022-09-23T10:28:40.319Z,1014.42
2022-09-23T10:29:40.326Z,1014.42
2022-09-23T10:30:40.367Z,1014.37
2022-09-23T10:31:40.341Z,1014.44
2022-09-23T10:32:40.330Z,1014.40
2022-09-23T10:33:40.326Z,1014.37
2022-09-23T10:34:40.345Z,1014.36
2022-09-23T10:35:40.325Z,1014.36
2022-09-23T10:36:44.475Z,1014.37
2022-09-23T10:37:40.323Z,1014.34
2022-09-23T10:38:40.313Z,1014.31
2022-09-23T10:39:40.337Z,1014.37
2022-09-23T10:40:47.591Z,1014.39
2022-09-23T10:42:34.138Z,1014.33
2022-09-23T10:43:33.813Z,1014.39
2022-09-23T10:45:39.857Z,1014.34
2022-09-23T10:46:37.984Z,1014.32
2022-09-23T10:48:41.937Z,1014.31
2022-09-23T10:49:41.965Z,1014.31
2022-09-23T10:51:34.885Z,1014.30
2022-09-23T10:52:34.915Z,1014.37
2022-09-23T10:54:38.863Z,1014.33
2022-09-23T10:55:38.885Z,1014.34
2022-09-23T10:57:42.921Z,1014.32
2022-09-23T10:58:42.856Z,1014.29
2022-09-23T11:00:46.980Z,1014.23
2022-09-23T11:01:46.947Z,1014.29
2022-09-23T11:03:51.241Z,1014.23
2022-09-23T11:04:51.530Z,1014.27
2022-09-23T11:05:51.507Z,1014.25
2022-09-23T11:06:50.910Z,1014.22
2022-09-23T11:07:50.929Z,1014.20
2022-09-23T11:08:50.907Z,1014.14
2022-09-23T11:09:50.897Z,1014.14
2022-09-23T11:10:50.901Z,1014.13
2022-09-23T11:11:50.911Z,1014.19
2022-09-23T11:12:50.897Z,1014.15
2022-09-23T11:13:54.209Z,1014.16
2022-09-23T11:14:51.110Z,1014.15
2022-09-23T11:15:50.918Z,1014.13
2022-09-23T11:16:51.302Z,1014.13
2022-09-23T11:17:50.902Z,1014.10
2022-09-23T11:18:50.893Z,1014.06
2022-09-23T11:19:50.898Z,1014.04
2022-09-23T11:20:50.897Z,1013.98
2022-09-23T11:21:50.902Z,1014.03
2022-09-23T11:22:50.896Z,1013.99
2022-09-23T11:23:50.909Z,1014.01
2022-09-23T11:24:50.897Z,1013.99
2022-09-23T11:25:50.919Z,1013.97
2022-09-23T11:26:50.897Z,1013.99
2022-09-23T11:27:50.893Z,1013.93
2022-09-23T11:28:50.897Z,1013.92
2022-09-23T11:29:51.269Z,1013.90
2022-09-23T11:30:50.954Z,1013.91
2022-09-23T11:31:50.905Z,1013.86
2022-09-23T11:32:50.928Z,1013.86
2022-09-23T11:33:50.900Z,1013.82
2022-09-23T11:34:52.726Z,1013.83
2022-09-23T11:35:50.926Z,1013.80
2022-09-23T11:36:50.905Z,1013.80
2022-09-23T11:37:50.902Z,1013.82
2022-09-23T11:38:50.897Z,1013.81
2022-09-23T11:39:50.905Z,1013.76
2022-09-23T11:40:50.946Z,1013.75
2022-09-23T11:41:50.908Z,1013.74
2022-09-23T11:42:50.898Z,1013.70
2022-09-23T11:43:50.911Z,1013.68
2022-09-23T11:44:50.920Z,1013.69
2022-09-23T11:45:50.953Z,1013.66
2022-09-23T11:46:50.968Z,1013.65
2022-09-23T11:47:50.902Z,1013.68
2022-09-23T11:48:50.904Z,1013.62
2022-09-23T11:49:50.897Z,1013.61
2022-09-23T11:50:50.901Z,1013.60
2022-09-23T11:51:50.904Z,1013.58
2022-09-23T11:52:50.941Z,1013.60
2022-09-23T11:53:50.907Z,1013.58
2022-09-23T11:54:50.895Z,1013.58
2022-09-23T11:55:57.396Z,1013.59
2022-09-23T11:56:50.895Z,1013.61
2022-09-23T11:57:51.107Z,1013.57
2022-09-23T11:58:54.623Z,1013.57
2022-09-23T11:59:52.290Z,1013.57
2022-09-23T12:00:56.176Z,1013.54
2022-09-23T12:01:50.959Z,1013.54
2022-09-23T12:03:02.927Z,1013.58
2022-09-23T12:03:51.085Z,1013.52
2022-09-23T12:04:56.832Z,1013.45
2022-09-23T12:05:50.969Z,1013.49
2022-09-23T12:06:50.900Z,1013.44
2022-09-23T12:07:50.893Z,1013.41
2022-09-23T12:08:51.090Z,1013.45
2022-09-23T12:09:58.867Z,1013.45
2022-09-23T12:10:50.895Z,1013.41
2022-09-23T12:11:50.902Z,1013.41
2022-09-23T12:12:50.894Z,1013.40
2022-09-23T12:13:50.897Z,1013.43
2022-09-23T12:14:50.895Z,1013.40
2022-09-23T12:15:50.891Z,1013.37
2022-09-23T12:16:50.925Z,1013.40
2022-09-23T12:17:50.894Z,1013.36
2022-09-23T12:18:50.890Z,1013.35
2022-09-23T12:19:50.899Z,1013.39
2022-09-23T12:20:50.935Z,1013.33
2022-09-23T12:22:50.888Z,1013.32
2022-09-23T12:23:50.916Z,1013.34
2022-09-23T12:24:50.891Z,1013.34
2022-09-23T12:25:50.890Z,1013.32
2022-09-23T12:26:50.887Z,1013.31
2022-09-23T12:27:50.888Z,1013.31
2022-09-23T12:28:51.017Z,1013.27